Impacts METAR Board INFO
IDs:

KSAN - San Diego Intl Arpt, CA, US

Updated at: 0725 UTC 24 Nov 2017
Potential Impact None Slight Moderate High
Time23/19Z 23/20Z 23/21Z 23/22Z 23/23Z 24/00Z 24/01Z 24/02Z 24/03Z 24/04Z 24/05Z 24/06Z 24/07Z
VIS10 10 10 10 10 10 10 10 10 10 10 10 10
CIG-- -- -- -- -- -- -- -- -- -- -- -- --
CoverFEWSCTSCTSCTSCTFEWFEWFEWFEWFEWFEWFEWFEW
FltCatVFRVFRVFRVFRVFRVFRVFRVFRVFRVFRVFRVFRVFR
WX--------------------------
WDir330310310310300300310350033000350
WSpd5 7 9 7 7 5 4 3 0 4 0 0 3
WGst-- -- -- -- -- -- -- -- -- -- -- -- --
Raw hourly METARs
KSAN 231851Z 33005KT 10SM FEW200 30/06 A3000 RMK AO2 SLP157 T03000056 $
KSAN 231951Z 31007KT 10SM FEW200 SCT250 29/04 A2997 RMK AO2 SLP148 T02940039 $
KSAN 232051Z 31009KT 10SM FEW200 SCT250 29/03 A2995 RMK AO2 SLP141 T02890033 56024 $
KSAN 232151Z 31007KT 10SM FEW150 SCT200 SCT250 28/03 A2993 RMK AO2 SLP134 T02830033 $
KSAN 232251Z 30007KT 10SM FEW180 SCT250 28/03 A2992 RMK AO2 SLP130 T02830033 $
KSAN 232351Z 30005KT 10SM FEW180 FEW250 28/06 A2992 RMK AO2 SLP130 T02780056 10306 20267 55010 $
KSAN 240051Z 31004KT 10SM FEW180 FEW250 26/07 A2992 RMK AO2 SLP130 T02560067 $
KSAN 240151Z 35003KT 10SM FEW250 24/07 A2993 RMK AO2 SLP133 T02440067 $
KSAN 240251Z 00000KT 10SM FEW250 23/07 A2993 RMK AO2 SLP136 T02280072 53006 $
KSAN 240351Z 33004KT 10SM FEW250 22/06 A2995 RMK AO2 SLP141 T02170061 $
KSAN 240451Z 00000KT 10SM FEW250 21/06 A2995 RMK AO2 SLP142 T02110061 $
KSAN 240551Z 00000KT 10SM FEW250 21/08 A2996 RMK AO2 SLP143 T02060078 10278 20206 51007 $
KSAN 240651Z 35003KT 10SM FEW250 19/06 A2996 RMK AO2 SLP143 T01940061 $